createdAt,value
2022-08-18T00:01:23.050Z,99915.31
2022-08-18T00:03:56.432Z,99922.22
2022-08-18T00:06:29.569Z,99999.63
2022-08-18T00:08:58.816Z,99995.09
2022-08-18T00:11:26.689Z,99996.94
2022-08-18T00:13:54.387Z,99982.75
2022-08-18T00:16:22.139Z,99991.88
2022-08-18T00:18:49.845Z,99980.22
2022-08-18T00:21:17.731Z,99975.81
2022-08-18T00:23:46.765Z,99986.63
2022-08-18T00:26:14.489Z,99991.34
2022-08-18T00:28:42.194Z,99988.81
2022-08-18T00:31:09.948Z,99987.97
2022-08-18T00:33:37.650Z,99984.44
2022-08-18T00:36:05.855Z,99961.94
2022-08-18T00:38:33.539Z,99991.81
2022-08-18T00:41:02.589Z,99990.16
2022-08-18T00:43:33.248Z,99952.94
2022-08-18T00:46:00.961Z,99989.28
2022-08-18T00:48:30.084Z,99985.94
2022-08-18T00:50:59.178Z,99991.34
2022-08-18T00:53:29.420Z,99974.78
2022-08-18T00:55:57.496Z,99991.50
2022-08-18T00:58:29.282Z,99985.94
2022-08-18T01:00:57.089Z,99980.69
2022-08-18T01:03:25.321Z,99950.41
2022-08-18T01:05:54.875Z,99908.47
2022-08-18T01:08:28.946Z,99993.66
2022-08-18T01:10:57.223Z,99986.59
2022-08-18T01:13:28.149Z,99989.28
2022-08-18T01:15:55.925Z,99978.81
2022-08-18T01:18:52.784Z,99925.16
2022-08-18T01:21:41.101Z,99985.19
2022-08-18T01:24:11.501Z,99992.63
2022-08-18T01:26:45.560Z,99990.91
2022-08-18T01:29:18.619Z,99979.16
2022-08-18T01:31:54.723Z,99979.16
2022-08-18T01:34:24.700Z,99973.03
2022-08-18T01:36:53.376Z,99981.13
2022-08-18T01:41:25.812Z,99987.53
2022-08-18T01:42:10.295Z,100000.34
2022-08-18T01:44:40.528Z,99989.53
2022-08-18T01:47:08.729Z,99985.97
2022-08-18T01:49:36.432Z,99981.59
2022-08-18T01:52:07.183Z,99979.06
2022-08-18T01:54:36.217Z,99980.09
2022-08-18T01:57:04.170Z,99980.25
2022-08-18T01:59:31.898Z,99983.94
2022-08-18T02:02:00.423Z,99986.47
2022-08-18T02:04:37.306Z,99990.19
2022-08-18T02:07:06.865Z,99972.22
2022-08-18T02:09:36.564Z,100010.25
2022-08-18T02:12:05.832Z,99999.31
2022-08-18T02:14:33.556Z,100001.31
2022-08-18T02:17:02.902Z,99997.91
2022-08-18T02:19:34.059Z,100001.63
2022-08-18T02:22:01.862Z,99999.94
2022-08-18T02:24:29.566Z,100002.66
2022-08-18T02:26:58.659Z,99998.25
2022-08-18T02:29:26.339Z,100000.28
2022-08-18T02:31:54.176Z,99993.00
2022-08-18T02:34:21.864Z,99993.00
2022-08-18T02:36:49.584Z,99993.16
2022-08-18T02:39:17.277Z,99994.88
2022-08-18T02:41:45.002Z,99993.16
2022-08-18T02:44:14.343Z,99996.88
2022-08-18T02:46:42.061Z,99995.19
2022-08-18T02:49:09.756Z,99995.19
2022-08-18T02:51:37.500Z,99990.94
2022-08-18T02:54:09.313Z,99984.88
2022-08-18T02:56:41.308Z,99982.34
2022-08-18T02:59:11.178Z,99995.00
2022-08-18T03:01:42.116Z,99990.44
2022-08-18T03:04:11.035Z,99946.13
2022-08-18T03:06:39.225Z,100007.66
2022-08-18T03:09:08.190Z,100008.47
2022-08-18T03:11:35.946Z,100008.63
2022-08-18T03:14:05.340Z,99960.66
2022-08-18T03:16:33.248Z,99996.50
2022-08-18T03:19:02.628Z,99996.50
2022-08-18T03:21:31.363Z,99998.50
2022-08-18T03:24:00.938Z,99994.13
2022-08-18T03:26:30.232Z,99995.13
2022-08-18T03:28:58.408Z,99989.03
2022-08-18T03:31:27.733Z,99995.44
2022-08-18T03:33:59.412Z,99992.06
2022-08-18T03:36:30.677Z,99988.34
2022-08-18T03:38:58.409Z,99992.06
2022-08-18T03:41:43.823Z,99988.50
2022-08-18T03:44:15.362Z,99990.38
2022-08-18T03:46:43.165Z,99991.50
2022-08-18T03:49:11.012Z,99995.94
2022-08-18T03:51:40.197Z,100003.47
2022-08-18T03:54:07.891Z,99992.69
2022-08-18T03:56:38.147Z,99991.00
2022-08-18T03:59:08.631Z,99991.84
2022-08-18T04:01:39.490Z,99997.22
2022-08-18T04:04:08.515Z,100000.09
2022-08-18T04:06:39.367Z,100012.75
2022-08-18T04:09:10.514Z,100013.72
2022-08-18T04:11:38.675Z,99988.16
2022-08-18T04:14:06.372Z,100010.38
2022-08-18T04:16:34.910Z,100017.44
2022-08-18T04:19:04.169Z,100016.59
2022-08-18T04:21:32.989Z,99995.03
2022-08-18T04:24:04.802Z,100011.50
2022-08-18T04:26:34.545Z,99942.44
2022-08-18T04:29:02.355Z,100015.69
2022-08-18T04:31:30.319Z,100016.56
2022-08-18T04:33:58.454Z,99974.66
2022-08-18T04:36:26.335Z,100016.56
2022-08-18T04:41:12.436Z,99996.06
2022-08-18T04:43:41.590Z,100017.66
2022-08-18T04:46:09.449Z,100028.44
2022-08-18T04:48:38.363Z,99988.84
2022-08-18T04:51:07.957Z,100036.53
2022-08-18T04:53:46.964Z,100037.44
2022-08-18T04:56:15.770Z,100026.06
2022-08-18T04:58:52.252Z,100032.31
2022-08-18T05:01:20.470Z,100032.31
2022-08-18T05:03:50.281Z,100034.84
2022-08-18T05:06:18.437Z,100029.63
2022-08-18T05:08:48.293Z,100006.06
2022-08-18T05:11:16.024Z,100031.31
2022-08-18T05:13:43.965Z,100033.16
2022-08-18T05:16:18.050Z,100029.63
2022-08-18T05:18:47.281Z,100030.47
2022-08-18T05:21:15.764Z,100037.72
2022-08-18T05:23:43.793Z,100038.56
2022-08-18T05:26:11.800Z,100038.41
2022-08-18T05:28:39.493Z,100036.53
2022-08-18T05:31:13.525Z,100041.09
2022-08-18T05:33:43.012Z,100035.00
2022-08-18T05:36:14.504Z,100045.81
2022-08-18T05:38:48.589Z,100052.88
2022-08-18T05:41:22.805Z,99993.19
2022-08-18T05:43:51.982Z,100043.69
2022-08-18T05:46:20.896Z,100043.97
2022-08-18T05:48:51.026Z,100040.41
2022-08-18T05:51:20.987Z,100044.28
2022-08-18T05:54:05.888Z,100048.50
2022-08-18T05:56:47.589Z,99986.38
2022-08-18T05:59:23.115Z,100049.91
2022-08-18T06:01:54.201Z,100049.91
2022-08-18T06:04:31.392Z,100022.25
2022-08-18T06:06:59.136Z,100055.28
2022-08-18T06:09:29.198Z,100051.63
2022-08-18T06:12:00.037Z,100043.53
2022-08-18T06:14:27.759Z,99936.00
2022-08-18T06:16:57.843Z,100000.16
2022-08-18T06:19:36.103Z,100002.16
2022-08-18T06:22:07.641Z,100054.16
2022-08-18T06:24:37.485Z,100049.59
2022-08-18T06:27:09.941Z,100055.84
2022-08-18T06:29:47.892Z,100056.69
2022-08-18T06:32:19.710Z,100060.91
2022-08-18T06:34:57.380Z,100057.44
2022-08-18T06:37:27.545Z,100069.84
2022-08-18T06:39:57.175Z,100082.31
2022-08-18T06:42:30.496Z,100080.50
2022-08-18T06:45:01.133Z,100025.41
2022-08-18T06:47:35.608Z,100086.34
2022-08-18T06:50:07.019Z,100085.56
2022-08-18T06:52:35.990Z,100093.66
2022-08-18T06:55:06.145Z,100059.69
2022-08-18T06:57:34.965Z,100043.13
2022-08-18T07:00:07.518Z,100041.97
2022-08-18T07:02:48.278Z,100093.34
2022-08-18T07:05:24.881Z,100104.13
2022-08-18T07:08:11.467Z,100081.78
2022-08-18T07:10:40.249Z,100102.25
2022-08-18T07:13:23.463Z,100105.66
2022-08-18T07:15:51.756Z,100107.66
2022-08-18T07:18:24.560Z,100108.50
2022-08-18T07:20:54.705Z,100029.75
2022-08-18T07:23:25.358Z,100077.44
2022-08-18T07:26:00.363Z,100109.53
2022-08-18T07:28:30.625Z,100113.06
2022-08-18T07:31:17.315Z,100126.38
2022-08-18T07:33:48.977Z,100122.84
2022-08-18T07:36:18.068Z,100123.69
2022-08-18T07:38:48.292Z,100071.88
2022-08-18T07:41:18.068Z,100083.72
2022-08-18T07:43:52.118Z,100093.75
2022-08-18T07:46:23.865Z,100067.28
2022-08-18T07:48:51.659Z,100110.59
2022-08-18T07:51:24.328Z,100106.22
2022-08-18T07:53:56.545Z,100116.84
2022-08-18T07:56:29.636Z,100122.06
2022-08-18T07:58:59.715Z,100054.81
2022-08-18T08:01:33.664Z,100062.44
2022-08-18T08:04:06.319Z,100119.22
2022-08-18T08:06:38.929Z,100119.06
2022-08-18T08:09:10.544Z,100081.00
2022-08-18T08:11:44.573Z,100062.41
2022-08-18T08:14:31.213Z,100098.94
2022-08-18T08:17:04.652Z,100108.78
2022-08-18T08:20:01.211Z,100098.69
2022-08-18T08:22:32.773Z,100101.22
2022-08-18T08:25:04.434Z,100062.97
2022-08-18T08:27:39.336Z,100104.97
2022-08-18T08:30:08.672Z,100070.59
2022-08-18T08:32:37.318Z,100108.22
2022-08-18T08:35:07.461Z,100116.00
2022-08-18T08:37:42.196Z,100053.19
2022-08-18T08:40:14.570Z,100116.50
2022-08-18T08:42:44.439Z,100108.56
2022-08-18T08:45:14.695Z,100109.25
2022-08-18T08:47:45.414Z,100072.88
2022-08-18T08:50:14.929Z,100114.34
2022-08-18T08:52:45.818Z,100117.91
2022-08-18T08:55:16.462Z,100116.88
2022-08-18T08:57:46.811Z,100117.72
2022-08-18T09:00:15.460Z,100055.44
2022-08-18T09:02:53.980Z,100117.41
2022-08-18T09:05:23.174Z,100076.78
2022-08-18T09:08:03.076Z,100114.41
2022-08-18T09:10:34.131Z,100110.00
2022-08-18T09:13:10.840Z,100111.53
2022-08-18T09:15:51.432Z,100119.34
2022-08-18T09:18:37.177Z,100126.28
2022-08-18T09:21:12.515Z,100117.31
2022-08-18T09:23:43.651Z,100076.16
2022-08-18T09:26:27.611Z,100132.88
2022-08-18T09:28:58.049Z,100137.28
2022-08-18T09:31:26.127Z,100129.69
2022-08-18T09:34:09.721Z,100083.13
2022-08-18T09:36:44.968Z,100132.78
2022-08-18T09:39:40.411Z,100135.31
2022-08-18T09:42:09.688Z,100099.88
2022-08-18T09:48:30.837Z,100143.25
2022-08-18T09:51:36.352Z,100151.34
2022-08-18T09:54:20.857Z,100138.00
2022-08-18T09:57:21.538Z,100149.66
2022-08-18T10:00:24.331Z,100144.44
2022-08-18T10:03:25.828Z,100144.44
2022-08-18T10:06:16.048Z,100143.56
2022-08-18T10:12:20.199Z,100157.06
2022-08-18T10:15:12.274Z,100152.69
2022-08-18T10:17:50.295Z,100158.09
2022-08-18T10:20:27.134Z,100150.81
2022-08-18T10:22:55.158Z,100147.28
2022-08-18T10:25:33.708Z,100081.41
2022-08-18T10:28:05.887Z,100137.00
2022-08-18T10:33:59.719Z,100142.22
2022-08-18T10:36:47.031Z,100138.53
2022-08-18T10:39:15.849Z,100138.53
2022-08-18T10:42:00.269Z,100079.25
2022-08-18T10:44:29.575Z,100132.13
2022-08-18T10:47:00.410Z,100079.94
2022-08-18T10:49:28.900Z,100138.88
2022-08-18T10:52:14.657Z,100140.28
2022-08-18T10:54:54.521Z,100139.94
2022-08-18T10:57:28.366Z,100137.09
2022-08-18T10:59:58.250Z,100137.59
2022-08-18T11:02:40.026Z,100130.19
2022-08-18T11:05:09.539Z,100134.56
2022-08-18T11:07:39.696Z,100134.41
2022-08-18T11:10:34.692Z,100130.88
2022-08-18T11:13:09.881Z,100079.28
2022-08-18T11:15:45.205Z,100118.88
2022-08-18T11:18:22.963Z,100126.13
2022-08-18T11:20:52.342Z,100136.13
2022-08-18T11:23:20.070Z,100119.91
2022-08-18T11:25:48.433Z,100117.03
2022-08-18T11:33:55.405Z,100118.41
2022-08-18T11:36:31.458Z,100120.09
2022-08-18T11:38:59.303Z,100113.84
2022-08-18T11:41:33.918Z,100105.59
2022-08-18T11:44:19.051Z,100061.59
2022-08-18T11:46:51.763Z,100098.13
2022-08-18T11:49:27.281Z,100095.44
2022-08-18T11:51:57.429Z,100063.16
2022-08-18T11:54:37.499Z,100089.72
2022-08-18T11:57:42.800Z,100085.00
2022-08-18T12:00:52.829Z,100086.50
2022-08-18T12:03:28.514Z,100029.38
2022-08-18T12:05:59.551Z,100040.03
2022-08-18T12:08:56.983Z,100079.66
2022-08-18T12:14:30.391Z,100072.22
2022-08-18T12:17:01.407Z,100068.50
2022-08-18T12:19:31.066Z,100074.91
2022-08-18T12:22:01.938Z,100078.63
2022-08-18T12:27:31.824Z,100077.78
2022-08-18T12:30:01.728Z,100077.78
2022-08-18T12:35:21.801Z,100071.53
2022-08-18T12:37:59.547Z,100072.22
2022-08-18T12:40:28.464Z,100058.69
2022-08-18T12:42:56.820Z,100059.56
2022-08-18T12:45:25.865Z,100005.06
2022-08-18T12:47:55.028Z,100045.00
2022-08-18T12:53:11.892Z,100042.16
2022-08-18T12:55:43.715Z,100043.84
2022-08-18T12:58:13.303Z,100041.00
2022-08-18T13:00:41.741Z,100046.06
2022-08-18T13:03:10.303Z,100055.00
2022-08-18T13:05:38.299Z,100013.91
2022-08-18T13:08:07.300Z,100010.34
2022-08-18T13:10:44.967Z,100069.88
2022-08-18T13:13:13.971Z,100060.59
2022-08-18T13:15:44.274Z,100032.00
2022-08-18T13:18:29.041Z,100055.00
2022-08-18T13:20:57.666Z,100036.94
2022-08-18T13:23:27.271Z,99998.22
2022-08-18T13:26:01.231Z,100020.03
2022-08-18T13:28:30.489Z,100033.06
2022-08-18T13:30:58.521Z,100021.06
2022-08-18T13:33:34.574Z,100028.50
2022-08-18T13:36:14.140Z,100023.91
2022-08-18T13:38:43.519Z,100022.06
2022-08-18T13:41:15.619Z,99956.31
2022-08-18T13:43:44.654Z,100027.47
2022-08-18T13:46:16.803Z,100033.75
2022-08-18T13:48:44.642Z,100032.72
2022-08-18T13:51:19.254Z,100027.31
2022-08-18T13:53:59.042Z,100027.31
2022-08-18T13:56:35.618Z,100027.31
2022-08-18T13:59:04.942Z,100021.06
2022-08-18T14:01:44.208Z,100017.53
2022-08-18T14:04:20.559Z,100004.84
2022-08-18T14:06:51.456Z,100000.28
2022-08-18T14:09:36.603Z,100011.09
2022-08-18T14:12:21.463Z,99955.69
2022-08-18T14:14:52.024Z,100007.53
2022-08-18T14:17:20.159Z,100004.84
2022-08-18T14:20:04.625Z,100002.13
2022-08-18T14:22:50.025Z,100008.38
2022-08-18T14:25:35.877Z,100014.81
2022-08-18T14:28:05.293Z,100008.91
2022-08-18T14:30:33.506Z,100006.72
2022-08-18T14:33:01.606Z,99974.75
2022-08-18T14:36:03.693Z,100008.72
2022-08-18T14:38:17.511Z,99999.75
2022-08-18T14:40:45.779Z,99998.09
2022-08-18T14:43:15.767Z,99906.50
2022-08-18T14:45:47.412Z,99998.09
2022-08-18T14:48:17.648Z,100001.13
2022-08-18T14:50:49.144Z,99996.41
2022-08-18T14:53:20.152Z,99999.94
2022-08-18T14:55:49.522Z,100006.34
2022-08-18T14:58:20.960Z,100010.09
2022-08-18T15:00:53.890Z,100009.22
2022-08-18T15:03:31.082Z,99945.16
2022-08-18T15:06:00.177Z,100004.84
2022-08-18T15:08:28.196Z,100002.97
2022-08-18T15:10:56.063Z,99996.91
2022-08-18T15:13:26.682Z,100004.16
2022-08-18T15:15:55.868Z,100005.84
2022-08-18T15:18:29.912Z,100005.00
2022-08-18T15:21:19.363Z,100005.19
2022-08-18T15:24:20.502Z,100011.59
2022-08-18T15:26:51.750Z,100008.88
2022-08-18T15:29:28.047Z,100010.75
2022-08-18T15:32:02.288Z,100006.19
2022-08-18T15:34:46.320Z,100009.03
2022-08-18T15:37:19.487Z,100012.78
2022-08-18T15:39:55.568Z,100004.84
2022-08-18T15:42:27.016Z,100003.81
2022-08-18T15:44:56.791Z,99993.00
2022-08-18T15:47:25.201Z,99994.88
2022-08-18T15:49:54.674Z,99993.16
2022-08-18T15:52:25.826Z,99999.44
2022-08-18T15:54:57.006Z,99997.59
2022-08-18T15:57:39.466Z,99987.75
2022-08-18T16:00:11.963Z,99886.19
2022-08-18T16:02:40.492Z,99988.78
2022-08-18T16:05:14.269Z,99986.94
2022-08-18T16:07:47.864Z,99983.38
2022-08-18T16:10:16.173Z,99983.38
2022-08-18T16:12:46.107Z,99983.38
2022-08-18T16:15:19.461Z,99987.94
2022-08-18T16:17:47.927Z,99988.09
2022-08-18T16:20:15.831Z,99995.22
2022-08-18T16:22:43.568Z,99991.66
2022-08-18T16:25:11.348Z,99992.69
2022-08-18T16:27:41.499Z,99935.69
2022-08-18T16:30:10.244Z,99989.13
2022-08-18T16:32:39.310Z,99947.34
2022-08-18T16:35:07.500Z,99988.44
2022-08-18T16:37:35.375Z,99988.44
2022-08-18T16:40:03.245Z,99980.50
2022-08-18T16:42:32.695Z,99983.38
2022-08-18T16:45:00.543Z,99981.50
2022-08-18T16:47:28.406Z,99987.94
2022-08-18T16:49:58.701Z,99982.53
2022-08-18T16:52:27.160Z,99987.94
2022-08-18T16:54:57.389Z,99981.28
2022-08-18T16:57:53.296Z,99979.16
2022-08-18T17:00:41.044Z,99980.19
2022-08-18T17:03:26.329Z,99970.31
2022-08-18T17:06:02.595Z,99954.28
2022-08-18T17:08:33.534Z,99956.16
2022-08-18T17:11:01.868Z,99960.72
2022-08-18T17:13:29.706Z,99959.03
2022-08-18T17:15:57.477Z,99965.25
2022-08-18T17:18:25.210Z,99970.66
2022-08-18T17:20:53.482Z,99972.69
2022-08-18T17:23:24.556Z,99977.25
2022-08-18T17:25:52.270Z,99970.16
2022-08-18T17:28:20.196Z,99977.25
2022-08-18T17:30:52.813Z,99984.66
2022-08-18T17:33:24.623Z,99976.72
2022-08-18T17:35:54.104Z,99989.25
2022-08-18T17:38:28.003Z,99948.53
2022-08-18T17:40:56.594Z,99986.72
2022-08-18T17:43:26.124Z,99934.31
2022-08-18T17:45:55.361Z,99972.50
2022-08-18T17:48:23.981Z,99997.53
2022-08-18T17:51:13.673Z,99934.31
2022-08-18T17:53:42.833Z,99972.16
2022-08-18T17:56:12.748Z,99968.75
2022-08-18T17:58:40.836Z,99995.47
2022-08-18T18:01:09.010Z,99991.91
2022-08-18T18:03:36.798Z,99987.38
2022-08-18T18:06:10.326Z,99982.97
2022-08-18T18:08:54.848Z,99954.41
2022-08-18T18:11:27.391Z,99922.78
2022-08-18T18:13:55.596Z,99964.41
2022-08-18T18:16:29.224Z,99983.97
2022-08-18T18:19:01.268Z,99988.69
2022-08-18T18:22:00.771Z,99946.94
2022-08-18T18:24:24.143Z,99990.56
2022-08-18T18:26:52.152Z,99999.66
2022-08-18T18:29:21.949Z,99986.34
2022-08-18T18:32:01.739Z,99982.44
2022-08-18T18:34:32.897Z,99988.22
2022-08-18T18:37:01.688Z,99994.59
2022-08-18T18:39:33.195Z,99999.00
2022-08-18T18:42:11.954Z,99978.91
2022-08-18T18:44:39.756Z,100002.03
2022-08-18T18:47:09.592Z,99994.09
2022-08-18T18:49:40.799Z,99944.06
2022-08-18T18:52:11.691Z,99997.78
2022-08-18T18:54:56.039Z,99869.16
2022-08-18T18:57:32.098Z,99955.53
2022-08-18T19:00:09.502Z,99998.81
2022-08-18T19:02:39.936Z,99997.13
2022-08-18T19:05:14.561Z,99977.50
2022-08-18T19:07:50.025Z,99959.59
2022-08-18T19:10:21.601Z,99978.56
2022-08-18T19:12:52.234Z,99980.25
2022-08-18T19:15:21.152Z,99984.78
2022-08-18T19:17:50.986Z,99985.63
2022-08-18T19:20:20.280Z,99984.13
2022-08-18T19:22:49.530Z,99973.13
2022-08-18T19:25:22.283Z,99977.00
2022-08-18T19:27:52.592Z,99980.69
2022-08-18T19:30:21.478Z,99991.53
2022-08-18T19:32:51.804Z,99956.91
2022-08-18T19:35:23.253Z,99991.00
2022-08-18T19:37:58.182Z,99914.25
2022-08-18T19:40:32.513Z,99957.56
2022-08-18T19:43:01.608Z,100001.66
2022-08-18T19:45:33.542Z,99947.69
2022-08-18T19:48:04.598Z,100001.81
2022-08-18T19:50:34.599Z,99998.28
2022-08-18T19:53:06.697Z,99996.75
2022-08-18T19:55:48.641Z,100001.31
2022-08-18T19:58:40.530Z,99977.81
2022-08-18T20:01:30.751Z,100009.41
2022-08-18T20:04:03.908Z,100010.25
2022-08-18T20:06:45.985Z,100006.56
2022-08-18T20:09:30.242Z,100007.53
2022-08-18T20:12:09.727Z,99984.22
2022-08-18T20:14:39.364Z,100011.41
2022-08-18T20:17:14.501Z,99964.56
2022-08-18T20:19:47.797Z,100007.72
2022-08-18T20:22:30.121Z,100009.59
2022-08-18T20:25:05.478Z,100010.56
2022-08-18T20:27:36.505Z,99967.25
2022-08-18T20:30:24.122Z,100007.88
2022-08-18T20:33:20.636Z,100012.59
2022-08-18T20:35:52.894Z,100022.72
2022-08-18T20:38:28.344Z,100005.50
2022-08-18T20:40:56.436Z,100020.00
2022-08-18T20:43:30.612Z,100020.00
2022-08-18T20:46:06.949Z,100026.28
2022-08-18T20:48:42.928Z,100031.66
2022-08-18T20:51:11.257Z,100021.84
2022-08-18T20:54:04.089Z,100028.44
2022-08-18T20:56:44.480Z,100012.00
2022-08-18T20:59:19.588Z,99976.16
2022-08-18T21:01:55.004Z,100038.22
2022-08-18T21:04:34.833Z,100031.31
2022-08-18T21:07:12.874Z,99998.78
2022-08-18T21:09:40.902Z,100040.41
2022-08-18T21:12:12.788Z,100042.44
2022-08-18T21:14:43.691Z,100041.25
2022-08-18T21:17:13.900Z,100032.47
2022-08-18T21:19:42.134Z,100032.81
2022-08-18T21:22:11.835Z,99989.81
2022-08-18T21:24:41.770Z,100052.38
2022-08-18T21:27:11.829Z,100053.38
2022-08-18T21:29:47.619Z,100054.41
2022-08-18T21:32:20.214Z,100002.06
2022-08-18T21:34:48.172Z,100064.34
2022-08-18T21:37:18.058Z,100072.28
2022-08-18T21:39:49.837Z,100072.59
2022-08-18T21:42:20.442Z,100073.63
2022-08-18T21:44:48.343Z,100065.38
2022-08-18T21:47:26.360Z,100057.44
2022-08-18T21:50:23.649Z,100055.56
2022-08-18T21:52:53.955Z,100022.03
2022-08-18T21:55:26.698Z,99989.09
2022-08-18T21:58:06.550Z,99960.31
2022-08-18T22:00:35.441Z,100033.38
2022-08-18T22:03:11.847Z,99988.72
2022-08-18T22:05:57.820Z,100054.00
2022-08-18T22:08:28.011Z,100063.13
2022-08-18T22:11:41.868Z,100018.09
2022-08-18T22:14:35.993Z,100056.00
2022-08-18T22:17:29.844Z,100054.31
2022-08-18T22:20:12.717Z,100052.63
2022-08-18T22:22:59.161Z,100046.38
2022-08-18T22:25:26.977Z,100046.38
2022-08-18T22:27:57.355Z,100045.53
2022-08-18T22:30:25.304Z,100047.25
2022-08-18T22:32:53.505Z,100045.53
2022-08-18T22:35:21.350Z,100053.47
2022-08-18T22:37:50.990Z,100050.09
2022-08-18T22:40:21.753Z,100056.31
2022-08-18T22:42:49.905Z,100060.03
2022-08-18T22:45:18.860Z,100058.34
2022-08-18T22:47:46.561Z,100059.34
2022-08-18T22:50:14.539Z,100066.63
2022-08-18T22:52:43.145Z,100031.88
2022-08-18T22:55:13.460Z,100086.50
2022-08-18T22:57:42.906Z,100094.59
2022-08-18T23:00:12.270Z,100096.63
2022-08-18T23:02:40.368Z,100101.16
2022-08-18T23:05:08.711Z,100049.56
2022-08-18T23:07:36.596Z,100102.19
2022-08-18T23:10:08.318Z,100100.47
2022-08-18T23:12:43.686Z,100087.13
2022-08-18T23:15:12.169Z,100093.38
2022-08-18T23:17:40.693Z,100086.63
2022-08-18T23:20:09.782Z,100097.09
2022-08-18T23:22:39.497Z,100027.03
2022-08-18T23:25:09.065Z,100051.41
2022-08-18T23:27:37.029Z,100090.31
2022-08-18T23:30:07.068Z,100095.69
2022-08-18T23:32:34.751Z,100098.25
2022-08-18T23:35:02.486Z,100101.09
2022-08-18T23:37:31.693Z,100109.91
2022-08-18T23:39:59.575Z,100107.34
2022-08-18T23:42:27.339Z,100110.91
2022-08-18T23:44:58.931Z,100104.66
2022-08-18T23:47:29.761Z,100106.50
2022-08-18T23:49:57.610Z,100107.50
2022-08-18T23:52:25.304Z,100108.53
2022-08-18T23:54:53.023Z,100104.97
2022-08-18T23:57:20.879Z,100107.84
2022-08-18T23:59:48.592Z,100114.91
